sensor_id;sensor_type;location;lat;lon;timestamp;temperature;humidity
24049;DHT22;12250;50.956;4.746;2023-04-03T00:01:16;1.30;99.90
24049;DHT22;12250;50.956;4.746;2023-04-03T00:03:41;1.30;99.90
24049;DHT22;12250;50.956;4.746;2023-04-03T00:06:08;1.30;99.90
24049;DHT22;12250;50.956;4.746;2023-04-03T00:08:35;1.20;99.90
24049;DHT22;12250;50.956;4.746;2023-04-03T00:11:02;1.20;99.90
24049;DHT22;12250;50.956;4.746;2023-04-03T00:13:28;1.20;99.90
24049;DHT22;12250;50.956;4.746;2023-04-03T00:15:54;1.20;99.90
24049;DHT22;12250;50.956;4.746;2023-04-03T00:18:20;1.10;99.90
24049;DHT22;12250;50.956;4.746;2023-04-03T00:20:46;1.10;99.90
24049;DHT22;12250;50.956;4.746;2023-04-03T00:23:12;1.10;99.90
24049;DHT22;12250;50.956;4.746;2023-04-03T00:25:38;1.00;99.90
24049;DHT22;12250;50.956;4.746;2023-04-03T00:28:04;1.00;99.90
24049;DHT22;12250;50.956;4.746;2023-04-03T00:30:30;1.10;99.90
24049;DHT22;12250;50.956;4.746;2023-04-03T00:32:56;1.10;99.90
24049;DHT22;12250;50.956;4.746;2023-04-03T00:35:23;1.10;99.90
24049;DHT22;12250;50.956;4.746;2023-04-03T00:37:52;1.00;99.90
24049;DHT22;12250;50.956;4.746;2023-04-03T00:40:20;1.00;99.90
24049;DHT22;12250;50.956;4.746;2023-04-03T00:42:48;1.00;99.90
24049;DHT22;12250;50.956;4.746;2023-04-03T00:47:51;1.00;99.90
24049;DHT22;12250;50.956;4.746;2023-04-03T00:50:17;1.00;99.90
24049;DHT22;12250;50.956;4.746;2023-04-03T00:52:43;1.00;99.90
24049;DHT22;12250;50.956;4.746;2023-04-03T00:55:11;0.90;99.90
24049;DHT22;12250;50.956;4.746;2023-04-03T00:57:40;0.90;99.90
24049;DHT22;12250;50.956;4.746;2023-04-03T01:00:10;0.90;99.90
24049;DHT22;12250;50.956;4.746;2023-04-03T01:02:36;0.90;99.90
24049;DHT22;12250;50.956;4.746;2023-04-03T01:05:02;0.90;99.90
24049;DHT22;12250;50.956;4.746;2023-04-03T01:07:30;0.90;99.90
24049;DHT22;12250;50.956;4.746;2023-04-03T01:09:58;0.90;99.90
24049;DHT22;12250;50.956;4.746;2023-04-03T01:14:54;0.80;99.90
24049;DHT22;12250;50.956;4.746;2023-04-03T01:17:40;0.80;99.90
24049;DHT22;12250;50.956;4.746;2023-04-03T01:28:09;0.80;99.90
24049;DHT22;12250;50.956;4.746;2023-04-03T01:30:50;0.70;99.90
24049;DHT22;12250;50.956;4.746;2023-04-03T01:33:18;0.70;99.90
24049;DHT22;12250;50.956;4.746;2023-04-03T01:35:44;0.70;99.90
24049;DHT22;12250;50.956;4.746;2023-04-03T01:38:10;0.70;99.90
24049;DHT22;12250;50.956;4.746;2023-04-03T01:40:36;0.70;99.90
24049;DHT22;12250;50.956;4.746;2023-04-03T01:43:01;0.70;99.90
24049;DHT22;12250;50.956;4.746;2023-04-03T01:45:27;0.70;99.90
24049;DHT22;12250;50.956;4.746;2023-04-03T01:47:53;0.70;99.90
24049;DHT22;12250;50.956;4.746;2023-04-03T01:50:18;0.70;99.90
24049;DHT22;12250;50.956;4.746;2023-04-03T01:52:44;0.70;99.90
24049;DHT22;12250;50.956;4.746;2023-04-03T01:55:10;0.70;99.90
24049;DHT22;12250;50.956;4.746;2023-04-03T01:57:35;0.70;99.90
24049;DHT22;12250;50.956;4.746;2023-04-03T02:00:01;0.70;99.90
24049;DHT22;12250;50.956;4.746;2023-04-03T02:02:26;0.70;99.90
24049;DHT22;12250;50.956;4.746;2023-04-03T02:04:52;0.80;99.90
24049;DHT22;12250;50.956;4.746;2023-04-03T02:07:18;0.80;99.90
24049;DHT22;12250;50.956;4.746;2023-04-03T02:09:43;0.70;99.90
24049;DHT22;12250;50.956;4.746;2023-04-03T02:12:09;0.70;99.90
24049;DHT22;12250;50.956;4.746;2023-04-03T02:14:35;0.70;99.90
24049;DHT22;12250;50.956;4.746;2023-04-03T02:17:01;0.60;99.90
24049;DHT22;12250;50.956;4.746;2023-04-03T02:19:30;0.70;99.90
24049;DHT22;12250;50.956;4.746;2023-04-03T02:21:56;0.60;99.90
24049;DHT22;12250;50.956;4.746;2023-04-03T02:24:22;0.60;99.90
24049;DHT22;12250;50.956;4.746;2023-04-03T02:26:47;0.60;99.90
24049;DHT22;12250;50.956;4.746;2023-04-03T02:29:13;0.60;99.90
24049;DHT22;12250;50.956;4.746;2023-04-03T02:31:39;0.60;99.90
24049;DHT22;12250;50.956;4.746;2023-04-03T02:34:05;0.50;99.90
24049;DHT22;12250;50.956;4.746;2023-04-03T02:36:31;0.50;99.90
24049;DHT22;12250;50.956;4.746;2023-04-03T02:38:57;0.50;99.90
24049;DHT22;12250;50.956;4.746;2023-04-03T02:41:22;0.60;99.90
24049;DHT22;12250;50.956;4.746;2023-04-03T02:43:50;0.50;99.90
24049;DHT22;12250;50.956;4.746;2023-04-03T02:46:16;0.50;99.90
24049;DHT22;12250;50.956;4.746;2023-04-03T02:48:42;0.50;99.90
24049;DHT22;12250;50.956;4.746;2023-04-03T02:51:07;0.50;99.90
24049;DHT22;12250;50.956;4.746;2023-04-03T02:53:33;0.50;99.90
24049;DHT22;12250;50.956;4.746;2023-04-03T02:55:59;0.50;99.90
24049;DHT22;12250;50.956;4.746;2023-04-03T02:58:24;0.40;99.90
24049;DHT22;12250;50.956;4.746;2023-04-03T03:00:50;0.40;99.90
24049;DHT22;12250;50.956;4.746;2023-04-03T03:03:16;0.50;99.90
24049;DHT22;12250;50.956;4.746;2023-04-03T03:05:41;0.40;99.90
24049;DHT22;12250;50.956;4.746;2023-04-03T03:08:07;0.40;99.90
24049;DHT22;12250;50.956;4.746;2023-04-03T03:10:33;0.30;99.90
24049;DHT22;12250;50.956;4.746;2023-04-03T03:12:58;0.30;99.90
24049;DHT22;12250;50.956;4.746;2023-04-03T03:15:24;0.30;99.90
24049;DHT22;12250;50.956;4.746;2023-04-03T03:17:49;0.30;99.90
24049;DHT22;12250;50.956;4.746;2023-04-03T03:20:15;0.30;99.90
24049;DHT22;12250;50.956;4.746;2023-04-03T03:22:41;0.30;99.90
24049;DHT22;12250;50.956;4.746;2023-04-03T03:25:07;0.30;99.90
24049;DHT22;12250;50.956;4.746;2023-04-03T03:27:33;0.20;99.90
24049;DHT22;12250;50.956;4.746;2023-04-03T03:29:59;0.20;99.90
24049;DHT22;12250;50.956;4.746;2023-04-03T03:32:25;0.20;99.90
24049;DHT22;12250;50.956;4.746;2023-04-03T03:34:50;0.20;99.90
24049;DHT22;12250;50.956;4.746;2023-04-03T03:37:16;0.30;99.90
24049;DHT22;12250;50.956;4.746;2023-04-03T03:39:42;0.10;99.90
24049;DHT22;12250;50.956;4.746;2023-04-03T03:42:07;0.10;99.90
24049;DHT22;12250;50.956;4.746;2023-04-03T03:44:33;0.10;99.90
24049;DHT22;12250;50.956;4.746;2023-04-03T03:46:59;0.10;99.90
24049;DHT22;12250;50.956;4.746;2023-04-03T03:49:25;0.10;99.90
24049;DHT22;12250;50.956;4.746;2023-04-03T03:51:51;0.00;99.90
24049;DHT22;12250;50.956;4.746;2023-04-03T03:54:17;0.00;99.90
24049;DHT22;12250;50.956;4.746;2023-04-03T03:56:42;0.00;99.90
24049;DHT22;12250;50.956;4.746;2023-04-03T03:59:08;0.00;99.90
24049;DHT22;12250;50.956;4.746;2023-04-03T04:01:34;0.00;99.90
24049;DHT22;12250;50.956;4.746;2023-04-03T04:03:59;0.00;99.90
24049;DHT22;12250;50.956;4.746;2023-04-03T04:06:25;0.00;99.90
24049;DHT22;12250;50.956;4.746;2023-04-03T04:08:51;-0.10;99.90
24049;DHT22;12250;50.956;4.746;2023-04-03T04:11:16;-0.10;99.90
24049;DHT22;12250;50.956;4.746;2023-04-03T04:13:42;-0.10;99.90
24049;DHT22;12250;50.956;4.746;2023-04-03T04:16:08;-0.10;99.90
24049;DHT22;12250;50.956;4.746;2023-04-03T04:18:35;-0.20;99.90
24049;DHT22;12250;50.956;4.746;2023-04-03T04:21:00;-0.10;99.90
24049;DHT22;12250;50.956;4.746;2023-04-03T04:23:26;-0.10;99.90
24049;DHT22;12250;50.956;4.746;2023-04-03T04:25:52;-0.10;99.90
24049;DHT22;12250;50.956;4.746;2023-04-03T04:28:18;-0.10;99.90
24049;DHT22;12250;50.956;4.746;2023-04-03T04:30:44;-0.10;99.90
24049;DHT22;12250;50.956;4.746;2023-04-03T04:33:10;-0.10;99.90
24049;DHT22;12250;50.956;4.746;2023-04-03T04:35:36;-0.10;99.90
24049;DHT22;12250;50.956;4.746;2023-04-03T04:38:02;-0.20;99.90
24049;DHT22;12250;50.956;4.746;2023-04-03T04:40:28;-0.20;99.90
24049;DHT22;12250;50.956;4.746;2023-04-03T04:42:54;-0.20;99.90
24049;DHT22;12250;50.956;4.746;2023-04-03T04:45:19;-0.20;99.90
24049;DHT22;12250;50.956;4.746;2023-04-03T04:47:45;-0.20;99.90
24049;DHT22;12250;50.956;4.746;2023-04-03T04:50:11;-0.20;99.90
24049;DHT22;12250;50.956;4.746;2023-04-03T04:52:37;-0.20;99.90
24049;DHT22;12250;50.956;4.746;2023-04-03T04:55:03;-0.30;99.90
24049;DHT22;12250;50.956;4.746;2023-04-03T04:57:30;-0.20;99.90
24049;DHT22;12250;50.956;4.746;2023-04-03T04:59:56;-0.20;99.90
24049;DHT22;12250;50.956;4.746;2023-04-03T05:02:21;-0.20;99.90
24049;DHT22;12250;50.956;4.746;2023-04-03T05:04:47;-0.30;99.90
24049;DHT22;12250;50.956;4.746;2023-04-03T05:07:15;-0.30;99.90
24049;DHT22;12250;50.956;4.746;2023-04-03T05:09:41;-0.30;99.90
24049;DHT22;12250;50.956;4.746;2023-04-03T05:12:08;-0.30;99.90
24049;DHT22;12250;50.956;4.746;2023-04-03T05:14:33;-0.40;99.90
24049;DHT22;12250;50.956;4.746;2023-04-03T05:16:59;-0.40;99.90
24049;DHT22;12250;50.956;4.746;2023-04-03T05:19:24;-0.40;99.90
24049;DHT22;12250;50.956;4.746;2023-04-03T05:21:50;-0.50;99.90
24049;DHT22;12250;50.956;4.746;2023-04-03T05:24:16;-0.40;99.90
24049;DHT22;12250;50.956;4.746;2023-04-03T05:26:42;-0.50;99.90
24049;DHT22;12250;50.956;4.746;2023-04-03T05:29:08;-0.50;99.90
24049;DHT22;12250;50.956;4.746;2023-04-03T05:31:34;-0.40;99.90
24049;DHT22;12250;50.956;4.746;2023-04-03T05:34:00;-0.40;99.90
24049;DHT22;12250;50.956;4.746;2023-04-03T05:36:26;-0.40;99.90
24049;DHT22;12250;50.956;4.746;2023-04-03T05:38:52;-0.30;99.90
24049;DHT22;12250;50.956;4.746;2023-04-03T05:41:17;-0.30;99.90
24049;DHT22;12250;50.956;4.746;2023-04-03T05:43:43;-0.30;99.90
24049;DHT22;12250;50.956;4.746;2023-04-03T05:46:14;-0.20;99.90
24049;DHT22;12250;50.956;4.746;2023-04-03T05:48:41;-0.20;99.90
24049;DHT22;12250;50.956;4.746;2023-04-03T05:51:09;-0.10;99.90
24049;DHT22;12250;50.956;4.746;2023-04-03T05:53:38;-0.10;99.90
24049;DHT22;12250;50.956;4.746;2023-04-03T05:56:04;0.00;99.90
24049;DHT22;12250;50.956;4.746;2023-04-03T05:58:30;0.20;99.90
24049;DHT22;12250;50.956;4.746;2023-04-03T06:00:56;0.20;99.90
24049;DHT22;12250;50.956;4.746;2023-04-03T06:03:22;0.30;99.90
24049;DHT22;12250;50.956;4.746;2023-04-03T06:05:48;0.40;99.90
24049;DHT22;12250;50.956;4.746;2023-04-03T06:08:14;0.50;99.90
24049;DHT22;12250;50.956;4.746;2023-04-03T06:10:40;0.70;99.90
24049;DHT22;12250;50.956;4.746;2023-04-03T06:13:06;0.90;99.90
24049;DHT22;12250;50.956;4.746;2023-04-03T06:15:33;1.00;99.90
24049;DHT22;12250;50.956;4.746;2023-04-03T06:17:59;1.10;99.90
24049;DHT22;12250;50.956;4.746;2023-04-03T06:20:25;1.20;99.90
24049;DHT22;12250;50.956;4.746;2023-04-03T06:22:51;1.40;99.90
24049;DHT22;12250;50.956;4.746;2023-04-03T06:25:17;1.60;99.90
24049;DHT22;12250;50.956;4.746;2023-04-03T06:27:44;1.80;99.90
24049;DHT22;12250;50.956;4.746;2023-04-03T06:30:11;1.80;99.90
24049;DHT22;12250;50.956;4.746;2023-04-03T06:32:37;2.00;99.90
24049;DHT22;12250;50.956;4.746;2023-04-03T06:35:04;2.10;99.90
24049;DHT22;12250;50.956;4.746;2023-04-03T06:37:30;2.10;99.90
24049;DHT22;12250;50.956;4.746;2023-04-03T06:39:56;2.40;99.90
24049;DHT22;12250;50.956;4.746;2023-04-03T06:42:24;3.00;99.90
24049;DHT22;12250;50.956;4.746;2023-04-03T06:44:49;3.20;99.90
24049;DHT22;12250;50.956;4.746;2023-04-03T06:47:16;3.20;99.90
24049;DHT22;12250;50.956;4.746;2023-04-03T06:49:42;3.20;99.90
24049;DHT22;12250;50.956;4.746;2023-04-03T06:52:09;3.00;99.90
24049;DHT22;12250;50.956;4.746;2023-04-03T06:54:35;3.00;99.90
24049;DHT22;12250;50.956;4.746;2023-04-03T06:57:01;3.00;99.90
24049;DHT22;12250;50.956;4.746;2023-04-03T06:59:27;2.90;99.90
24049;DHT22;12250;50.956;4.746;2023-04-03T07:01:53;2.90;99.90
24049;DHT22;12250;50.956;4.746;2023-04-03T07:04:19;3.00;99.90
24049;DHT22;12250;50.956;4.746;2023-04-03T07:06:46;3.20;99.90
24049;DHT22;12250;50.956;4.746;2023-04-03T07:09:13;3.10;99.90
24049;DHT22;12250;50.956;4.746;2023-04-03T07:11:39;3.10;99.90
24049;DHT22;12250;50.956;4.746;2023-04-03T07:14:05;3.20;99.90
24049;DHT22;12250;50.956;4.746;2023-04-03T07:16:33;3.20;99.90
24049;DHT22;12250;50.956;4.746;2023-04-03T07:19:00;3.80;99.90
24049;DHT22;12250;50.956;4.746;2023-04-03T07:21:25;4.40;99.90
24049;DHT22;12250;50.956;4.746;2023-04-03T07:23:51;5.40;99.90
24049;DHT22;12250;50.956;4.746;2023-04-03T07:26:17;5.90;99.90
24049;DHT22;12250;50.956;4.746;2023-04-03T07:28:43;6.70;99.90
24049;DHT22;12250;50.956;4.746;2023-04-03T07:31:13;7.40;99.90
24049;DHT22;12250;50.956;4.746;2023-04-03T07:33:39;8.20;99.90
24049;DHT22;12250;50.956;4.746;2023-04-03T07:36:06;8.80;99.90
24049;DHT22;12250;50.956;4.746;2023-04-03T07:38:35;8.30;99.90
24049;DHT22;12250;50.956;4.746;2023-04-03T07:41:02;8.00;99.90
24049;DHT22;12250;50.956;4.746;2023-04-03T07:43:28;7.60;99.90
24049;DHT22;12250;50.956;4.746;2023-04-03T07:45:53;7.30;99.90
24049;DHT22;12250;50.956;4.746;2023-04-03T07:48:24;7.60;99.90
24049;DHT22;12250;50.956;4.746;2023-04-03T07:50:50;7.90;99.90
24049;DHT22;12250;50.956;4.746;2023-04-03T07:53:17;8.40;99.90
24049;DHT22;12250;50.956;4.746;2023-04-03T07:55:46;8.80;99.90
24049;DHT22;12250;50.956;4.746;2023-04-03T07:58:14;9.30;99.90
24049;DHT22;12250;50.956;4.746;2023-04-03T08:00:40;10.10;99.90
24049;DHT22;12250;50.956;4.746;2023-04-03T08:03:07;11.40;99.80
24049;DHT22;12250;50.956;4.746;2023-04-03T08:05:42;13.20;94.80
24049;DHT22;12250;50.956;4.746;2023-04-03T08:08:10;15.50;91.80
24049;DHT22;12250;50.956;4.746;2023-04-03T08:10:36;17.00;79.90
24049;DHT22;12250;50.956;4.746;2023-04-03T08:13:03;18.60;72.70
24049;DHT22;12250;50.956;4.746;2023-04-03T08:15:30;20.80;66.10
24049;DHT22;12250;50.956;4.746;2023-04-03T08:17:56;22.00;54.30
24049;DHT22;12250;50.956;4.746;2023-04-03T08:20:21;21.80;52.00
24049;DHT22;12250;50.956;4.746;2023-04-03T08:22:47;20.20;53.10
24049;DHT22;12250;50.956;4.746;2023-04-03T08:25:13;19.20;56.00
24049;DHT22;12250;50.956;4.746;2023-04-03T08:27:39;19.80;53.20
24049;DHT22;12250;50.956;4.746;2023-04-03T08:30:05;19.70;55.00
24049;DHT22;12250;50.956;4.746;2023-04-03T08:32:33;20.20;53.60
24049;DHT22;12250;50.956;4.746;2023-04-03T08:34:59;19.60;53.00
24049;DHT22;12250;50.956;4.746;2023-04-03T08:37:25;19.50;52.20
24049;DHT22;12250;50.956;4.746;2023-04-03T08:39:52;20.10;50.40
24049;DHT22;12250;50.956;4.746;2023-04-03T08:45:08;21.80;47.40
24049;DHT22;12250;50.956;4.746;2023-04-03T08:47:53;22.90;45.80
24049;DHT22;12250;50.956;4.746;2023-04-03T08:50:29;23.50;44.90
24049;DHT22;12250;50.956;4.746;2023-04-03T08:52:59;23.60;43.20
24049;DHT22;12250;50.956;4.746;2023-04-03T08:55:37;23.20;44.40
24049;DHT22;12250;50.956;4.746;2023-04-03T08:58:06;23.80;43.20
24049;DHT22;12250;50.956;4.746;2023-04-03T09:00:44;24.00;41.00
24049;DHT22;12250;50.956;4.746;2023-04-03T09:03:17;24.50;40.00
24049;DHT22;12250;50.956;4.746;2023-04-03T09:08:22;21.90;42.60
24049;DHT22;12250;50.956;4.746;2023-04-03T09:10:49;22.20;42.70
24049;DHT22;12250;50.956;4.746;2023-04-03T09:13:30;22.30;41.90
24049;DHT22;12250;50.956;4.746;2023-04-03T09:16:00;22.10;43.30
24049;DHT22;12250;50.956;4.746;2023-04-03T09:18:32;23.20;41.40
24049;DHT22;12250;50.956;4.746;2023-04-03T09:21:31;24.20;41.40
24049;DHT22;12250;50.956;4.746;2023-04-03T09:23:59;25.40;39.50
24049;DHT22;12250;50.956;4.746;2023-04-03T09:26:33;26.10;37.00
24049;DHT22;12250;50.956;4.746;2023-04-03T09:29:04;26.20;36.90
24049;DHT22;12250;50.956;4.746;2023-04-03T09:31:43;26.40;37.60
24049;DHT22;12250;50.956;4.746;2023-04-03T09:34:23;26.00;36.50
24049;DHT22;12250;50.956;4.746;2023-04-03T09:36:53;24.90;35.00
24049;DHT22;12250;50.956;4.746;2023-04-03T09:39:22;25.70;35.60
24049;DHT22;12250;50.956;4.746;2023-04-03T09:42:03;26.30;35.70
24049;DHT22;12250;50.956;4.746;2023-04-03T09:44:34;25.40;34.60
24049;DHT22;12250;50.956;4.746;2023-04-03T09:49:44;22.20;40.40
24049;DHT22;12250;50.956;4.746;2023-04-03T09:52:24;23.00;38.50
24049;DHT22;12250;50.956;4.746;2023-04-03T09:54:50;23.80;38.40
24049;DHT22;12250;50.956;4.746;2023-04-03T09:57:16;24.20;36.60
24049;DHT22;12250;50.956;4.746;2023-04-03T10:00:01;24.80;37.40
24049;DHT22;12250;50.956;4.746;2023-04-03T10:02:39;24.50;37.60
24049;DHT22;12250;50.956;4.746;2023-04-03T10:05:31;24.00;37.40
24049;DHT22;12250;50.956;4.746;2023-04-03T10:08:17;25.10;35.30
24049;DHT22;12250;50.956;4.746;2023-04-03T10:10:46;25.50;32.80
24049;DHT22;12250;50.956;4.746;2023-04-03T10:13:18;25.70;34.30
24049;DHT22;12250;50.956;4.746;2023-04-03T10:15:51;25.80;30.80
24049;DHT22;12250;50.956;4.746;2023-04-03T10:21:40;25.50;32.10
24049;DHT22;12250;50.956;4.746;2023-04-03T10:24:39;25.20;32.30
24049;DHT22;12250;50.956;4.746;2023-04-03T10:43:31;24.50;32.90
24049;DHT22;12250;50.956;4.746;2023-04-03T10:46:37;24.90;32.30
24049;DHT22;12250;50.956;4.746;2023-04-03T10:57:34;23.20;33.60
24049;DHT22;12250;50.956;4.746;2023-04-03T11:00:04;22.10;35.10
24049;DHT22;12250;50.956;4.746;2023-04-03T11:02:51;22.40;36.30
24049;DHT22;12250;50.956;4.746;2023-04-03T11:05:30;22.70;38.10
24049;DHT22;12250;50.956;4.746;2023-04-03T11:08:09;22.40;36.80
24049;DHT22;12250;50.956;4.746;2023-04-03T11:10:46;20.50;38.90
24049;DHT22;12250;50.956;4.746;2023-04-03T11:15:39;20.20;38.70
24049;DHT22;12250;50.956;4.746;2023-04-03T11:18:17;19.70;39.20
24049;DHT22;12250;50.956;4.746;2023-04-03T11:21:03;19.10;36.80
24049;DHT22;12250;50.956;4.746;2023-04-03T11:23:34;17.40;38.00
24049;DHT22;12250;50.956;4.746;2023-04-03T11:28:41;14.80;43.10
24049;DHT22;12250;50.956;4.746;2023-04-03T11:31:32;15.20;45.90
24049;DHT22;12250;50.956;4.746;2023-04-03T11:37:00;15.00;44.40
24049;DHT22;12250;50.956;4.746;2023-04-03T11:39:33;14.60;45.50
24049;DHT22;12250;50.956;4.746;2023-04-03T11:42:17;14.50;46.30
24049;DHT22;12250;50.956;4.746;2023-04-03T11:44:48;14.00;46.20
24049;DHT22;12250;50.956;4.746;2023-04-03T11:47:47;13.10;47.90
24049;DHT22;12250;50.956;4.746;2023-04-03T11:53:00;12.50;48.00
24049;DHT22;12250;50.956;4.746;2023-04-03T12:29:50;11.60;49.90
24049;DHT22;12250;50.956;4.746;2023-04-03T12:35:18;11.50;48.20
24049;DHT22;12250;50.956;4.746;2023-04-03T12:40:51;11.90;49.00
24049;DHT22;12250;50.956;4.746;2023-04-03T12:48:48;11.50;46.30
24049;DHT22;12250;50.956;4.746;2023-04-03T12:53:54;11.60;50.60
24049;DHT22;12250;50.956;4.746;2023-04-03T12:56:29;12.00;50.90
24049;DHT22;12250;50.956;4.746;2023-04-03T12:59:21;12.10;50.60
24049;DHT22;12250;50.956;4.746;2023-04-03T13:01:58;12.20;50.00
24049;DHT22;12250;50.956;4.746;2023-04-03T13:04:25;12.10;49.30
24049;DHT22;12250;50.956;4.746;2023-04-03T13:06:51;12.00;47.70
24049;DHT22;12250;50.956;4.746;2023-04-03T13:09:23;12.00;50.00
24049;DHT22;12250;50.956;4.746;2023-04-03T13:11:53;12.30;50.30
24049;DHT22;12250;50.956;4.746;2023-04-03T13:14:23;12.30;49.50
24049;DHT22;12250;50.956;4.746;2023-04-03T13:16:56;12.20;47.50
24049;DHT22;12250;50.956;4.746;2023-04-03T13:19:24;12.20;49.10
24049;DHT22;12250;50.956;4.746;2023-04-03T13:21:56;12.00;49.80
24049;DHT22;12250;50.956;4.746;2023-04-03T13:24:23;12.10;50.00
24049;DHT22;12250;50.956;4.746;2023-04-03T13:26:51;12.10;48.90
24049;DHT22;12250;50.956;4.746;2023-04-03T13:29:27;12.30;49.50
24049;DHT22;12250;50.956;4.746;2023-04-03T13:31:55;12.20;50.90
24049;DHT22;12250;50.956;4.746;2023-04-03T13:34:23;12.30;49.10
24049;DHT22;12250;50.956;4.746;2023-04-03T13:41:46;12.20;50.90
24049;DHT22;12250;50.956;4.746;2023-04-03T13:46:48;12.40;49.60
24049;DHT22;12250;50.956;4.746;2023-04-03T13:49:41;12.20;49.20
24049;DHT22;12250;50.956;4.746;2023-04-03T13:52:51;12.20;50.30
24049;DHT22;12250;50.956;4.746;2023-04-03T13:55:29;12.50;50.30
24049;DHT22;12250;50.956;4.746;2023-04-03T13:57:57;12.30;49.90
24049;DHT22;12250;50.956;4.746;2023-04-03T14:00:34;12.20;49.60
24049;DHT22;12250;50.956;4.746;2023-04-03T14:03:01;12.10;46.90
24049;DHT22;12250;50.956;4.746;2023-04-03T14:05:27;11.80;47.60
24049;DHT22;12250;50.956;4.746;2023-04-03T14:07:54;11.90;51.00
24049;DHT22;12250;50.956;4.746;2023-04-03T14:10:21;12.00;49.10
24049;DHT22;12250;50.956;4.746;2023-04-03T14:12:47;12.00;49.10
24049;DHT22;12250;50.956;4.746;2023-04-03T14:15:23;12.10;49.00
24049;DHT22;12250;50.956;4.746;2023-04-03T14:17:51;12.10;50.00
24049;DHT22;12250;50.956;4.746;2023-04-03T14:20:19;12.30;48.90
24049;DHT22;12250;50.956;4.746;2023-04-03T14:22:46;12.30;49.30
24049;DHT22;12250;50.956;4.746;2023-04-03T14:25:12;12.10;48.00
24049;DHT22;12250;50.956;4.746;2023-04-03T14:27:42;11.90;49.20
24049;DHT22;12250;50.956;4.746;2023-04-03T14:30:18;11.90;48.40
24049;DHT22;12250;50.956;4.746;2023-04-03T14:32:45;12.00;49.50
24049;DHT22;12250;50.956;4.746;2023-04-03T14:35:12;12.20;48.40
24049;DHT22;12250;50.956;4.746;2023-04-03T14:37:38;12.20;48.90
24049;DHT22;12250;50.956;4.746;2023-04-03T14:40:05;12.20;48.20
24049;DHT22;12250;50.956;4.746;2023-04-03T14:42:34;12.30;49.00
24049;DHT22;12250;50.956;4.746;2023-04-03T14:45:02;12.20;47.20
24049;DHT22;12250;50.956;4.746;2023-04-03T14:47:29;12.30;48.10
24049;DHT22;12250;50.956;4.746;2023-04-03T14:49:56;12.30;48.80
24049;DHT22;12250;50.956;4.746;2023-04-03T14:52:24;12.40;49.20
24049;DHT22;12250;50.956;4.746;2023-04-03T14:54:51;12.20;46.60
24049;DHT22;12250;50.956;4.746;2023-04-03T14:57:17;12.00;49.10
24049;DHT22;12250;50.956;4.746;2023-04-03T14:59:44;11.80;47.30
24049;DHT22;12250;50.956;4.746;2023-04-03T15:02:29;12.10;49.90
24049;DHT22;12250;50.956;4.746;2023-04-03T15:04:56;12.20;51.10
24049;DHT22;12250;50.956;4.746;2023-04-03T15:07:24;12.30;49.00
24049;DHT22;12250;50.956;4.746;2023-04-03T15:09:50;12.40;50.00
24049;DHT22;12250;50.956;4.746;2023-04-03T15:12:16;12.40;49.30
24049;DHT22;12250;50.956;4.746;2023-04-03T15:14:42;12.50;49.80
24049;DHT22;12250;50.956;4.746;2023-04-03T15:17:15;12.40;47.60
24049;DHT22;12250;50.956;4.746;2023-04-03T15:19:42;11.90;47.10
24049;DHT22;12250;50.956;4.746;2023-04-03T15:22:14;11.90;51.60
24049;DHT22;12250;50.956;4.746;2023-04-03T15:24:40;12.00;49.60
24049;DHT22;12250;50.956;4.746;2023-04-03T15:27:06;12.10;51.60
24049;DHT22;12250;50.956;4.746;2023-04-03T15:29:31;12.30;51.00
24049;DHT22;12250;50.956;4.746;2023-04-03T15:31:57;12.30;50.30
24049;DHT22;12250;50.956;4.746;2023-04-03T15:34:23;12.40;50.20
24049;DHT22;12250;50.956;4.746;2023-04-03T15:36:49;12.40;50.60
24049;DHT22;12250;50.956;4.746;2023-04-03T15:39:17;12.20;49.50
24049;DHT22;12250;50.956;4.746;2023-04-03T15:41:44;12.20;51.10
24049;DHT22;12250;50.956;4.746;2023-04-03T15:44:10;12.10;50.00
24049;DHT22;12250;50.956;4.746;2023-04-03T15:46:37;12.00;51.50
24049;DHT22;12250;50.956;4.746;2023-04-03T15:49:04;11.60;50.70
24049;DHT22;12250;50.956;4.746;2023-04-03T15:51:30;11.60;52.10
24049;DHT22;12250;50.956;4.746;2023-04-03T15:53:57;11.60;53.10
24049;DHT22;12250;50.956;4.746;2023-04-03T15:56:22;11.50;51.50
24049;DHT22;12250;50.956;4.746;2023-04-03T15:58:48;11.40;52.00
24049;DHT22;12250;50.956;4.746;2023-04-03T16:01:14;11.60;54.10
24049;DHT22;12250;50.956;4.746;2023-04-03T16:03:41;11.80;53.00
24049;DHT22;12250;50.956;4.746;2023-04-03T16:06:11;11.80;51.40
24049;DHT22;12250;50.956;4.746;2023-04-03T16:08:37;11.60;51.10
24049;DHT22;12250;50.956;4.746;2023-04-03T16:11:03;11.40;51.40
24049;DHT22;12250;50.956;4.746;2023-04-03T16:13:28;11.40;52.70
24049;DHT22;12250;50.956;4.746;2023-04-03T16:15:54;11.60;53.50
24049;DHT22;12250;50.956;4.746;2023-04-03T16:18:20;11.50;52.70
24049;DHT22;12250;50.956;4.746;2023-04-03T16:20:46;11.30;51.60
24049;DHT22;12250;50.956;4.746;2023-04-03T16:23:13;11.30;54.10
24049;DHT22;12250;50.956;4.746;2023-04-03T16:25:39;11.30;52.50
24049;DHT22;12250;50.956;4.746;2023-04-03T16:28:05;11.10;51.90
24049;DHT22;12250;50.956;4.746;2023-04-03T16:30:30;11.10;51.40
24049;DHT22;12250;50.956;4.746;2023-04-03T16:32:57;10.90;52.00
24049;DHT22;12250;50.956;4.746;2023-04-03T16:35:22;11.00;54.10
24049;DHT22;12250;50.956;4.746;2023-04-03T16:37:48;11.00;54.70
24049;DHT22;12250;50.956;4.746;2023-04-03T16:40:14;11.10;54.30
24049;DHT22;12250;50.956;4.746;2023-04-03T16:42:40;11.20;53.60
24049;DHT22;12250;50.956;4.746;2023-04-03T16:45:06;10.90;52.30
24049;DHT22;12250;50.956;4.746;2023-04-03T16:47:32;10.60;52.70
24049;DHT22;12250;50.956;4.746;2023-04-03T16:49:58;10.40;53.40
24049;DHT22;12250;50.956;4.746;2023-04-03T16:52:24;10.50;54.10
24049;DHT22;12250;50.956;4.746;2023-04-03T16:54:49;10.40;53.60
24049;DHT22;12250;50.956;4.746;2023-04-03T16:57:17;10.40;54.80
24049;DHT22;12250;50.956;4.746;2023-04-03T16:59:42;10.50;55.60
24049;DHT22;12250;50.956;4.746;2023-04-03T17:02:08;10.40;55.40
24049;DHT22;12250;50.956;4.746;2023-04-03T17:04:34;10.20;54.80
24049;DHT22;12250;50.956;4.746;2023-04-03T17:07:00;10.10;55.60
24049;DHT22;12250;50.956;4.746;2023-04-03T17:09:30;10.00;56.50
24049;DHT22;12250;50.956;4.746;2023-04-03T17:11:56;9.90;57.00
24049;DHT22;12250;50.956;4.746;2023-04-03T17:14:22;9.80;56.70
24049;DHT22;12250;50.956;4.746;2023-04-03T17:16:47;9.80;58.60
24049;DHT22;12250;50.956;4.746;2023-04-03T17:19:13;9.80;56.80
24049;DHT22;12250;50.956;4.746;2023-04-03T17:21:39;9.70;57.80
24049;DHT22;12250;50.956;4.746;2023-04-03T17:24:08;9.70;57.30
24049;DHT22;12250;50.956;4.746;2023-04-03T17:26:34;9.60;57.10
24049;DHT22;12250;50.956;4.746;2023-04-03T17:29:02;9.40;56.50
24049;DHT22;12250;50.956;4.746;2023-04-03T17:31:28;9.40;56.60
24049;DHT22;12250;50.956;4.746;2023-04-03T17:33:54;9.30;57.60
24049;DHT22;12250;50.956;4.746;2023-04-03T17:36:19;9.20;58.30
24049;DHT22;12250;50.956;4.746;2023-04-03T17:38:45;9.30;58.30
24049;DHT22;12250;50.956;4.746;2023-04-03T17:41:13;9.20;58.60